createdAt,value
2017-09-23T00:00:57.946Z,0
2017-09-23T00:02:07.580Z,0
2017-09-23T00:03:17.532Z,0
2017-09-23T00:04:27.806Z,0
2017-09-23T00:05:38.085Z,0
2017-09-23T00:06:48.355Z,0
2017-09-23T00:07:58.309Z,0
2017-09-23T00:09:08.592Z,0
2017-09-23T00:10:18.867Z,0
2017-09-23T00:11:29.147Z,0
2017-09-23T00:12:39.419Z,0
2017-09-23T00:13:49.695Z,0
2017-09-23T00:14:59.974Z,0
2017-09-23T00:16:09.928Z,0
2017-09-23T00:17:19.879Z,0
2017-09-23T00:18:30.162Z,0
2017-09-23T00:19:39.483Z,0
2017-09-23T00:20:49.430Z,0
2017-09-23T00:21:59.708Z,0
2017-09-23T00:23:09.980Z,0
2017-09-23T00:24:19.934Z,0
2017-09-23T00:25:29.565Z,0
2017-09-23T00:26:39.868Z,0
2017-09-23T00:27:49.824Z,0
2017-09-23T00:29:00.093Z,0
2017-09-23T00:30:09.726Z,0
2017-09-23T00:31:19.998Z,0
2017-09-23T00:32:29.953Z,0
2017-09-23T00:33:40.238Z,0
2017-09-23T00:34:50.189Z,0
2017-09-23T00:36:00.469Z,0
2017-09-23T00:37:10.101Z,0
2017-09-23T00:38:20.051Z,0
2017-09-23T00:39:30.001Z,0
2017-09-23T00:40:40.285Z,0
2017-09-23T00:41:50.235Z,0
2017-09-23T00:43:00.510Z,0
2017-09-23T00:44:10.784Z,0
2017-09-23T00:45:20.733Z,0
2017-09-23T00:46:31.016Z,0
2017-09-23T00:47:41.293Z,0
2017-09-23T00:48:51.561Z,0
2017-09-23T00:50:01.836Z,0
2017-09-23T00:51:12.106Z,0
2017-09-23T00:52:22.392Z,0
2017-09-23T00:53:32.667Z,0
2017-09-23T00:54:42.943Z,0
2017-09-23T00:55:52.895Z,0
2017-09-23T00:57:02.849Z,0
2017-09-23T00:58:12.476Z,0
2017-09-23T00:59:22.748Z,0
2017-09-23T01:00:32.702Z,0
2017-09-23T01:01:42.972Z,0
2017-09-23T01:02:53.240Z,0
2017-09-23T01:04:03.552Z,0
2017-09-23T01:05:13.185Z,0
2017-09-23T01:06:22.491Z,0
2017-09-23T01:07:32.771Z,0
2017-09-23T01:08:42.726Z,0
2017-09-23T01:09:53.006Z,0
2017-09-23T01:11:02.961Z,0
2017-09-23T01:12:13.240Z,0
2017-09-23T01:13:23.199Z,0
2017-09-23T01:14:33.471Z,0
2017-09-23T01:15:43.419Z,0
2017-09-23T01:16:53.370Z,0
2017-09-23T01:18:03.329Z,0
2017-09-23T01:19:13.291Z,0
2017-09-23T01:20:23.241Z,0
2017-09-23T01:21:33.201Z,0
2017-09-23T01:22:43.149Z,0
2017-09-23T01:23:53.421Z,0
2017-09-23T01:25:03.694Z,0
2017-09-23T01:26:13.332Z,0
2017-09-23T01:27:23.287Z,0
2017-09-23T01:28:33.562Z,0
2017-09-23T01:29:43.522Z,0
2017-09-23T01:30:53.483Z,0
2017-09-23T01:32:03.442Z,0
2017-09-23T01:33:13.393Z,0
2017-09-23T01:34:23.344Z,0
2017-09-23T01:35:33.302Z,0
2017-09-23T01:36:43.261Z,0
2017-09-23T01:37:53.213Z,0
2017-09-23T01:39:03.487Z,0
2017-09-23T01:40:13.766Z,0
2017-09-23T01:41:23.732Z,0
2017-09-23T01:42:33.369Z,0
2017-09-23T01:43:43.657Z,0
2017-09-23T01:44:53.927Z,0
2017-09-23T01:46:04.203Z,0
2017-09-23T01:47:14.485Z,0
2017-09-23T01:48:24.756Z,0
2017-09-23T01:49:34.704Z,0
2017-09-23T01:50:44.985Z,0
2017-09-23T01:51:54.616Z,0
2017-09-23T01:53:04.253Z,0
2017-09-23T01:54:14.532Z,0
2017-09-23T01:55:24.805Z,0
2017-09-23T01:56:35.079Z,0
2017-09-23T01:57:45.029Z,0
2017-09-23T01:58:55.321Z,0
2017-09-23T02:00:05.270Z,0
2017-09-23T02:01:14.899Z,0
2017-09-23T02:02:24.850Z,0
2017-09-23T02:03:35.131Z,0
2017-09-23T02:04:45.413Z,0
2017-09-23T02:05:55.689Z,0
2017-09-23T02:07:05.957Z,0
2017-09-23T02:08:16.236Z,0
2017-09-23T02:09:26.188Z,0
2017-09-23T02:10:36.708Z,0
2017-09-23T02:11:46.988Z,0
2017-09-23T02:12:56.949Z,0
2017-09-23T02:14:06.580Z,0
2017-09-23T02:15:16.856Z,0
2017-09-23T02:16:27.130Z,0
2017-09-23T02:17:37.107Z,0
2017-09-23T02:18:47.065Z,0
2017-09-23T02:19:57.333Z,0
2017-09-23T02:21:07.288Z,0
2017-09-23T02:22:17.562Z,0
2017-09-23T02:23:27.836Z,0
2017-09-23T02:24:38.120Z,0
2017-09-23T02:25:48.068Z,0
2017-09-23T02:26:58.349Z,0
2017-09-23T02:28:08.624Z,0
2017-09-23T02:29:18.255Z,0
2017-09-23T02:30:28.529Z,0
2017-09-23T02:31:38.157Z,0
2017-09-23T02:32:48.127Z,0
2017-09-23T02:33:58.086Z,0
2017-09-23T02:35:08.045Z,0
2017-09-23T02:36:18.317Z,0
2017-09-23T02:37:28.268Z,0
2017-09-23T02:38:38.221Z,0
2017-09-23T02:39:48.177Z,0
2017-09-23T02:40:58.456Z,0
2017-09-23T02:42:08.423Z,0
2017-09-23T02:43:18.380Z,0
2017-09-23T02:44:28.009Z,0
2017-09-23T02:45:38.280Z,0
2017-09-23T02:46:48.562Z,0
2017-09-23T02:47:58.861Z,0
2017-09-23T02:49:08.814Z,0
2017-09-23T02:50:19.092Z,0
2017-09-23T02:51:29.365Z,0
2017-09-23T02:52:39.634Z,0
2017-09-23T02:53:49.925Z,0
2017-09-23T02:55:00.208Z,0
2017-09-23T02:56:10.161Z,0
2017-09-23T02:57:20.432Z,0
2017-09-23T02:58:30.706Z,0
2017-09-23T02:59:40.657Z,0
2017-09-23T03:00:50.614Z,0
2017-09-23T03:02:00.567Z,0
2017-09-23T03:03:10.531Z,0
2017-09-23T03:04:20.808Z,0
2017-09-23T03:05:31.084Z,0
2017-09-23T03:06:41.036Z,0
2017-09-23T03:07:50.665Z,0
2017-09-23T03:09:00.613Z,0
2017-09-23T03:10:10.886Z,0
2017-09-23T03:11:21.157Z,0
2017-09-23T03:12:31.441Z,0
2017-09-23T03:13:41.721Z,0
2017-09-23T03:14:51.995Z,0
2017-09-23T03:16:01.950Z,0
2017-09-23T03:17:12.221Z,0
2017-09-23T03:18:22.494Z,0
2017-09-23T03:19:32.444Z,0
2017-09-23T03:20:42.718Z,0
2017-09-23T03:21:52.673Z,0
2017-09-23T03:23:02.623Z,0
2017-09-23T03:24:12.904Z,0
2017-09-23T03:25:22.851Z,0
2017-09-23T03:26:32.801Z,0
2017-09-23T03:27:42.759Z,0
2017-09-23T03:28:52.405Z,0
2017-09-23T03:30:02.682Z,0
2017-09-23T03:31:12.648Z,0
2017-09-23T03:32:22.931Z,0
2017-09-23T03:33:33.206Z,0
2017-09-23T03:34:43.482Z,0
2017-09-23T03:35:53.432Z,0
2017-09-23T03:37:03.716Z,0
2017-09-23T03:38:13.667Z,0
2017-09-23T03:39:23.940Z,0
2017-09-23T03:40:34.219Z,0
2017-09-23T03:41:44.494Z,0
2017-09-23T03:42:54.784Z,0
2017-09-23T03:44:04.741Z,0
2017-09-23T03:45:14.700Z,0
2017-09-23T03:46:24.981Z,0
2017-09-23T03:47:34.284Z,0
2017-09-23T03:48:44.555Z,0
2017-09-23T03:49:54.519Z,0
2017-09-23T03:51:04.802Z,0
2017-09-23T03:52:14.761Z,0
2017-09-23T03:53:24.713Z,0
2017-09-23T03:54:34.672Z,0
2017-09-23T03:55:44.940Z,0
2017-09-23T03:56:55.258Z,0
2017-09-23T03:58:05.208Z,0
2017-09-23T03:59:15.164Z,0
2017-09-23T04:00:25.113Z,0
2017-09-23T04:01:35.076Z,0
2017-09-23T04:02:45.347Z,0
2017-09-23T04:03:55.335Z,0
2017-09-23T04:05:05.289Z,0
2017-09-23T04:06:15.566Z,0
2017-09-23T04:07:25.859Z,0
2017-09-23T04:08:36.136Z,0
2017-09-23T04:09:46.089Z,0
2017-09-23T04:10:56.364Z,0
2017-09-23T04:12:06.637Z,0
2017-09-23T04:13:16.589Z,0
2017-09-23T04:14:26.869Z,0
2017-09-23T04:15:37.153Z,0
2017-09-23T04:16:47.425Z,0
2017-09-23T04:17:57.701Z,0
2017-09-23T04:19:07.979Z,0
2017-09-23T04:20:18.251Z,0
2017-09-23T04:21:28.522Z,0
2017-09-23T04:22:38.793Z,0
2017-09-23T04:23:49.071Z,0
2017-09-23T04:24:58.705Z,0
2017-09-23T04:26:08.657Z,0
2017-09-23T04:27:18.931Z,0
2017-09-23T04:28:28.884Z,0
2017-09-23T04:29:38.833Z,0
2017-09-23T04:30:49.110Z,0
2017-09-23T04:31:59.386Z,0
2017-09-23T04:33:09.657Z,0
2017-09-23T04:34:19.937Z,0
2017-09-23T04:35:30.207Z,0
2017-09-23T04:36:40.732Z,0
2017-09-23T04:37:51.003Z,4
2017-09-23T04:39:01.274Z,4
2017-09-23T04:40:11.572Z,0
2017-09-23T04:41:21.850Z,4
2017-09-23T04:42:32.124Z,4
2017-09-23T04:43:42.085Z,4
2017-09-23T04:44:52.042Z,8
2017-09-23T04:46:01.993Z,4
2017-09-23T04:47:12.265Z,4
2017-09-23T04:48:21.904Z,8
2017-09-23T04:49:32.173Z,8
2017-09-23T04:50:41.806Z,8
2017-09-23T04:51:52.091Z,8
2017-09-23T04:53:02.040Z,8
2017-09-23T04:54:11.992Z,12
2017-09-23T04:55:22.266Z,12
2017-09-23T04:56:32.538Z,12
2017-09-23T04:57:42.813Z,12
2017-09-23T04:58:52.758Z,20
2017-09-23T05:00:03.028Z,20
2017-09-23T05:01:13.301Z,20
2017-09-23T05:02:23.264Z,24
2017-09-23T05:03:33.215Z,24
2017-09-23T05:04:43.496Z,24
2017-09-23T05:05:53.771Z,28
2017-09-23T05:07:04.050Z,28
2017-09-23T05:08:14.327Z,32
2017-09-23T05:09:24.597Z,32
2017-09-23T05:10:34.871Z,32
2017-09-23T05:11:45.146Z,36
2017-09-23T05:12:55.422Z,48
2017-09-23T05:14:05.063Z,48
2017-09-23T05:15:15.018Z,48
2017-09-23T05:16:25.295Z,52
2017-09-23T05:17:35.564Z,60
2017-09-23T05:18:45.845Z,60
2017-09-23T05:19:56.115Z,68
2017-09-23T05:21:06.387Z,68
2017-09-23T05:22:16.343Z,72
2017-09-23T05:23:26.617Z,72
2017-09-23T05:24:36.573Z,72
2017-09-23T05:25:46.855Z,76
2017-09-23T05:26:56.814Z,80
2017-09-23T05:28:06.765Z,84
2017-09-23T05:29:16.721Z,92
2017-09-23T05:30:26.990Z,100
2017-09-23T05:31:36.622Z,112
2017-09-23T05:32:46.891Z,124
2017-09-23T05:33:57.165Z,132
2017-09-23T05:35:07.482Z,144
2017-09-23T05:36:17.756Z,152
2017-09-23T05:37:28.034Z,168
2017-09-23T05:38:37.983Z,180
2017-09-23T05:39:48.263Z,196
2017-09-23T05:40:58.537Z,212
2017-09-23T05:42:08.168Z,236
2017-09-23T05:43:18.118Z,260
2017-09-23T05:44:28.076Z,288
2017-09-23T05:45:38.028Z,304
2017-09-23T05:46:48.311Z,316
2017-09-23T05:47:58.275Z,320
2017-09-23T05:49:08.554Z,328
2017-09-23T05:50:18.828Z,332
2017-09-23T05:51:29.103Z,324
2017-09-23T05:52:39.370Z,316
2017-09-23T05:53:49.649Z,320
2017-09-23T05:54:59.924Z,324
2017-09-23T05:56:09.883Z,344
2017-09-23T05:57:20.156Z,368
2017-09-23T05:58:30.432Z,396
2017-09-23T05:59:40.704Z,420
2017-09-23T06:00:50.986Z,424
2017-09-23T06:02:01.259Z,412
2017-09-23T06:03:11.535Z,392
2017-09-23T06:04:21.168Z,388
2017-09-23T06:05:31.445Z,388
2017-09-23T06:06:41.398Z,388
2017-09-23T06:07:51.672Z,388
2017-09-23T06:09:01.946Z,388
2017-09-23T06:10:11.905Z,388
2017-09-23T06:11:22.172Z,384
2017-09-23T06:12:32.123Z,388
2017-09-23T06:13:42.072Z,384
2017-09-23T06:14:52.023Z,384
2017-09-23T06:16:02.303Z,384
2017-09-23T06:17:12.256Z,376
2017-09-23T06:18:22.528Z,352
2017-09-23T06:19:32.809Z,328
2017-09-23T06:20:43.087Z,312
2017-09-23T06:21:53.357Z,304
2017-09-23T06:23:03.634Z,308
2017-09-23T06:24:13.914Z,324
2017-09-23T06:25:24.197Z,360
2017-09-23T06:26:34.469Z,392
2017-09-23T06:27:44.102Z,416
2017-09-23T06:28:54.372Z,436
2017-09-23T06:30:04.009Z,452
2017-09-23T06:31:14.282Z,460
2017-09-23T06:32:24.238Z,468
2017-09-23T06:33:34.512Z,468
2017-09-23T06:34:44.141Z,468
2017-09-23T06:35:54.425Z,488
2017-09-23T06:37:04.052Z,504
2017-09-23T06:38:14.008Z,508
2017-09-23T06:39:24.279Z,520
2017-09-23T06:40:34.551Z,516
2017-09-23T06:41:44.502Z,524
2017-09-23T06:42:54.776Z,552
2017-09-23T06:44:04.731Z,544
2017-09-23T06:45:15.008Z,552
2017-09-23T06:46:24.639Z,580
2017-09-23T06:47:34.592Z,644
2017-09-23T06:48:44.865Z,680
2017-09-23T06:49:55.145Z,736
2017-09-23T06:51:05.095Z,772
2017-09-23T06:52:15.050Z,776
2017-09-23T06:53:25.332Z,844
2017-09-23T06:54:35.277Z,856
2017-09-23T06:55:44.910Z,888
2017-09-23T06:56:57.289Z,960
2017-09-23T06:58:07.558Z,1012
2017-09-23T06:59:17.509Z,1032
2017-09-23T07:00:27.789Z,1088
2017-09-23T07:01:38.096Z,1176
2017-09-23T07:02:48.369Z,1184
2017-09-23T07:03:58.317Z,1336
2017-09-23T07:05:08.267Z,1376
2017-09-23T07:06:18.544Z,1504
2017-09-23T07:07:28.823Z,1548
2017-09-23T07:08:38.455Z,1596
2017-09-23T07:09:48.734Z,1508
2017-09-23T07:10:58.683Z,1492
2017-09-23T07:12:08.315Z,1408
2017-09-23T07:13:18.588Z,1420
2017-09-23T07:14:28.218Z,1376
2017-09-23T07:15:38.497Z,1448
2017-09-23T07:16:48.773Z,1440
2017-09-23T07:17:58.406Z,1560
2017-09-23T07:19:08.355Z,1656
2017-09-23T07:20:18.307Z,1496
2017-09-23T07:21:28.583Z,1448
2017-09-23T07:22:38.860Z,1440
2017-09-23T07:23:49.138Z,1396
2017-09-23T07:24:59.090Z,1488
2017-09-23T07:26:09.041Z,1472
2017-09-23T07:27:19.319Z,1516
2017-09-23T07:28:29.271Z,1664
2017-09-23T07:29:39.545Z,1740
2017-09-23T07:30:49.498Z,1796
2017-09-23T07:31:59.774Z,1732
2017-09-23T07:33:09.398Z,1748
2017-09-23T07:34:19.364Z,1788
2017-09-23T07:35:28.993Z,1796
2017-09-23T07:36:38.949Z,1860
2017-09-23T07:37:48.899Z,1764
2017-09-23T07:38:59.174Z,1768
2017-09-23T07:40:08.807Z,1604
2017-09-23T07:41:18.760Z,1464
2017-09-23T07:42:29.031Z,1388
2017-09-23T07:43:39.305Z,1292
2017-09-23T07:44:49.581Z,1236
2017-09-23T07:45:59.857Z,1116
2017-09-23T07:47:09.814Z,1268
2017-09-23T07:48:19.771Z,1264
2017-09-23T07:49:29.722Z,1360
2017-09-23T07:50:39.671Z,1408
2017-09-23T07:51:49.623Z,1424
2017-09-23T07:52:59.582Z,1444
2017-09-23T07:54:09.534Z,1424
2017-09-23T07:55:19.809Z,1416
2017-09-23T07:56:30.082Z,1448
2017-09-23T07:57:40.032Z,1536
2017-09-23T07:58:49.984Z,1628
2017-09-23T08:00:00.262Z,1708
2017-09-23T08:01:10.222Z,1756
2017-09-23T08:02:20.496Z,1684
2017-09-23T08:03:30.775Z,1784
2017-09-23T08:04:40.724Z,1844
2017-09-23T08:05:51.011Z,1884
2017-09-23T08:07:01.285Z,1848
2017-09-23T08:08:10.912Z,1780
2017-09-23T08:09:21.187Z,1772
2017-09-23T08:10:31.156Z,1800
2017-09-23T08:11:41.434Z,1820
2017-09-23T08:12:51.706Z,1940
2017-09-23T08:14:01.982Z,2016
2017-09-23T08:15:11.937Z,2080
2017-09-23T08:16:21.889Z,2212
2017-09-23T08:17:32.165Z,2236
2017-09-23T08:18:41.149Z,2304
2017-09-23T08:19:50.784Z,2260
2017-09-23T08:21:01.060Z,2140
2017-09-23T08:22:11.014Z,2052
2017-09-23T08:23:21.294Z,1952
2017-09-23T08:24:31.572Z,1884
2017-09-23T08:25:41.522Z,1804
2017-09-23T08:26:51.475Z,1784
2017-09-23T08:28:01.105Z,1776
2017-09-23T08:29:11.059Z,1808
2017-09-23T08:30:21.012Z,1856
2017-09-23T08:31:30.647Z,1892
2017-09-23T08:32:40.914Z,1864
2017-09-23T08:33:50.577Z,1876
2017-09-23T08:35:00.860Z,1876
2017-09-23T08:36:10.819Z,1944
2017-09-23T08:37:21.090Z,1996
2017-09-23T08:38:31.047Z,2052
2017-09-23T08:39:41.330Z,2080
2017-09-23T08:40:51.284Z,2188
2017-09-23T08:42:01.591Z,2216
2017-09-23T08:43:11.868Z,2300
2017-09-23T08:44:22.148Z,2420
2017-09-23T08:45:32.416Z,2408
2017-09-23T08:46:42.364Z,2492
2017-09-23T08:47:52.637Z,2556
2017-09-23T08:49:02.914Z,2600
2017-09-23T08:50:12.873Z,2652
2017-09-23T08:51:23.146Z,2816
2017-09-23T08:52:33.104Z,2992
2017-09-23T08:53:43.392Z,3072
2017-09-23T08:54:53.666Z,3012
2017-09-23T08:56:03.623Z,2904
2017-09-23T08:57:13.576Z,2816
2017-09-23T08:58:23.527Z,2720
2017-09-23T08:59:33.162Z,2672
2017-09-23T09:00:43.440Z,2660
2017-09-23T09:01:53.727Z,2680
2017-09-23T09:03:04.005Z,2628
2017-09-23T09:04:14.284Z,2620
2017-09-23T09:05:24.239Z,2640
2017-09-23T09:06:34.193Z,2568
2017-09-23T09:07:44.468Z,2592
2017-09-23T09:08:54.423Z,2692
2017-09-23T09:10:04.376Z,2900
2017-09-23T09:11:14.325Z,3244
2017-09-23T09:12:24.632Z,3636
2017-09-23T09:13:34.585Z,4020
2017-09-23T09:14:44.866Z,4344
2017-09-23T09:15:55.141Z,4352
2017-09-23T09:17:05.416Z,4184
2017-09-23T09:18:15.372Z,3908
2017-09-23T09:19:25.651Z,3688
2017-09-23T09:20:35.936Z,3620
2017-09-23T09:21:45.893Z,3764
2017-09-23T09:22:55.848Z,3700
2017-09-23T09:24:05.807Z,3480
2017-09-23T09:25:15.761Z,3400
2017-09-23T09:26:26.032Z,3200
2017-09-23T09:27:36.015Z,3052
2017-09-23T09:28:45.973Z,3160
2017-09-23T09:29:55.607Z,3452
2017-09-23T09:31:05.558Z,3348
2017-09-23T09:32:15.516Z,3496
2017-09-23T09:33:25.791Z,3420
2017-09-23T09:34:36.068Z,3272
2017-09-23T09:35:45.706Z,3016
2017-09-23T09:36:55.985Z,2772
2017-09-23T09:38:05.933Z,2912
2017-09-23T09:39:15.561Z,3152
2017-09-23T09:40:25.840Z,3228
2017-09-23T09:41:35.470Z,3264
2017-09-23T09:42:45.100Z,3308
2017-09-23T09:43:55.378Z,3212
2017-09-23T09:45:05.655Z,3272
2017-09-23T09:46:15.935Z,3396
2017-09-23T09:47:25.896Z,3300
2017-09-23T09:48:35.850Z,3204
2017-09-23T09:49:45.805Z,3428
2017-09-23T09:50:55.766Z,3260
2017-09-23T09:52:06.051Z,2844
2017-09-23T09:53:16.008Z,2848
2017-09-23T09:54:26.293Z,3012
2017-09-23T09:55:35.283Z,3276
2017-09-23T09:56:45.564Z,3148
2017-09-23T09:57:55.203Z,3360
2017-09-23T09:59:04.511Z,3420
2017-09-23T10:00:14.460Z,3232
2017-09-23T10:01:24.737Z,3340
2017-09-23T10:02:35.011Z,3388
2017-09-23T10:03:44.642Z,3580
2017-09-23T10:04:54.920Z,3960
2017-09-23T10:06:04.559Z,3896
2017-09-23T10:07:14.514Z,3696
2017-09-23T10:08:24.791Z,3476
2017-09-23T10:09:35.068Z,3440
2017-09-23T10:10:45.340Z,3268
2017-09-23T10:11:55.327Z,3080
2017-09-23T10:13:04.954Z,2992
2017-09-23T10:14:15.231Z,3016
2017-09-23T10:15:25.509Z,3036
2017-09-23T10:16:35.465Z,3156
2017-09-23T10:17:45.742Z,3172
2017-09-23T10:18:56.017Z,3212
2017-09-23T10:20:05.325Z,3404
2017-09-23T10:21:15.281Z,3428
2017-09-23T10:22:25.235Z,3616
2017-09-23T10:23:35.514Z,3644
2017-09-23T10:24:45.789Z,3536
2017-09-23T10:25:55.430Z,3424
2017-09-23T10:27:05.388Z,3296
2017-09-23T10:28:15.338Z,3204
2017-09-23T10:29:25.292Z,2912
2017-09-23T10:30:35.577Z,2588
2017-09-23T10:31:45.537Z,2548
2017-09-23T10:32:55.168Z,2692
2017-09-23T10:34:05.129Z,2744
2017-09-23T10:35:14.759Z,2776
2017-09-23T10:36:24.385Z,2720
2017-09-23T10:37:34.662Z,2660
2017-09-23T10:38:44.297Z,2768
2017-09-23T10:39:54.259Z,2820
2017-09-23T10:41:04.212Z,2772
2017-09-23T10:42:14.167Z,2796
2017-09-23T10:43:24.439Z,2888
2017-09-23T10:44:34.389Z,2964
2017-09-23T10:45:44.349Z,2908
2017-09-23T10:46:54.310Z,2900
2017-09-23T10:48:04.584Z,3080
2017-09-23T10:49:14.536Z,3416
2017-09-23T10:50:24.978Z,3644
2017-09-23T10:51:35.250Z,3588
2017-09-23T10:52:45.532Z,3472
2017-09-23T10:53:55.811Z,3496
2017-09-23T10:55:05.441Z,3384
2017-09-23T10:56:15.393Z,3416
2017-09-23T10:57:25.678Z,3292
2017-09-23T10:58:35.952Z,3532
2017-09-23T10:59:46.236Z,3704
2017-09-23T11:00:56.196Z,3952
2017-09-23T11:02:06.155Z,4148
2017-09-23T11:03:15.465Z,4224
2017-09-23T11:04:25.421Z,4196
2017-09-23T11:05:35.697Z,4132
2017-09-23T11:06:45.974Z,3956
2017-09-23T11:07:55.610Z,4024
2017-09-23T11:09:05.567Z,4364
2017-09-23T11:10:15.197Z,4624
2017-09-23T11:11:25.485Z,5208
2017-09-23T11:12:35.770Z,6092
2017-09-23T11:13:46.048Z,6304
2017-09-23T11:14:55.688Z,6236
2017-09-23T11:16:05.321Z,6204
2017-09-23T11:17:15.608Z,6152
2017-09-23T11:18:25.592Z,5964
2017-09-23T11:19:35.873Z,5700
2017-09-23T11:20:46.157Z,5532
2017-09-23T11:21:55.791Z,5820
2017-09-23T11:23:05.746Z,6300
2017-09-23T11:24:16.030Z,6880
2017-09-23T11:25:25.665Z,7040
2017-09-23T11:26:35.619Z,6572
2017-09-23T11:27:45.574Z,6132
2017-09-23T11:28:55.548Z,5700
2017-09-23T11:30:05.500Z,4868
2017-09-23T11:31:15.782Z,4224
2017-09-23T11:32:25.736Z,4128
2017-09-23T11:33:36.014Z,4592
2017-09-23T11:34:45.970Z,5520
2017-09-23T11:35:56.248Z,6364
2017-09-23T11:37:06.557Z,6568
2017-09-23T11:38:16.523Z,6352
2017-09-23T11:39:26.473Z,6160
2017-09-23T11:40:36.423Z,6096
2017-09-23T11:41:46.707Z,6156
2017-09-23T11:42:56.667Z,6328
2017-09-23T11:44:06.615Z,6048
2017-09-23T11:45:16.571Z,6068
2017-09-23T11:46:26.528Z,6496
2017-09-23T11:47:36.805Z,7004
2017-09-23T11:48:46.762Z,7056
2017-09-23T11:49:57.040Z,6796
2017-09-23T11:51:06.992Z,6332
2017-09-23T11:52:17.270Z,5936
2017-09-23T11:53:27.221Z,5552
2017-09-23T11:54:36.856Z,5416
2017-09-23T11:55:46.811Z,5284
2017-09-23T11:56:57.113Z,5128
2017-09-23T11:58:06.748Z,5100
2017-09-23T11:59:16.704Z,4992
2017-09-23T12:00:26.979Z,4864
2017-09-23T12:01:36.614Z,5096
2017-09-23T12:02:46.245Z,5144
2017-09-23T12:03:56.201Z,4712
2017-09-23T12:05:06.156Z,4104
2017-09-23T12:06:16.114Z,3772
2017-09-23T12:07:26.389Z,3760
2017-09-23T12:08:36.343Z,3880
2017-09-23T12:09:46.621Z,4092
2017-09-23T12:10:56.895Z,4436
2017-09-23T12:12:07.173Z,4552
2017-09-23T12:13:17.457Z,4632
2017-09-23T12:14:27.092Z,5224
2017-09-23T12:15:37.056Z,5892
2017-09-23T12:16:47.018Z,6208
2017-09-23T12:17:56.981Z,6256
2017-09-23T12:19:06.941Z,6312
2017-09-23T12:20:17.221Z,6444
2017-09-23T12:21:27.177Z,6348
2017-09-23T12:22:37.132Z,5980
2017-09-23T12:23:47.085Z,5644
2017-09-23T12:24:57.043Z,5420
2017-09-23T12:26:06.995Z,5248
2017-09-23T12:27:17.279Z,5068
2017-09-23T12:28:27.556Z,4828
2017-09-23T12:29:37.512Z,4744
2017-09-23T12:30:47.472Z,4764
2017-09-23T12:31:57.758Z,4788
2017-09-23T12:33:07.733Z,4880
2017-09-23T12:34:18.029Z,4928
2017-09-23T12:35:27.981Z,4980
2017-09-23T12:36:38.258Z,4984
2017-09-23T12:37:48.538Z,4948
2017-09-23T12:38:58.813Z,4932
2017-09-23T12:40:09.094Z,4912
2017-09-23T12:41:19.082Z,4888
2017-09-23T12:42:29.358Z,4772
2017-09-23T12:43:39.318Z,4680
2017-09-23T12:44:48.954Z,4588
2017-09-23T12:45:58.596Z,4496
2017-09-23T12:47:08.558Z,4412
2017-09-23T12:48:18.837Z,4380
2017-09-23T12:49:28.823Z,4448
2017-09-23T12:50:38.778Z,4484
2017-09-23T12:51:48.477Z,4560
2017-09-23T12:52:58.758Z,4684
2017-09-23T12:54:08.718Z,4884
2017-09-23T12:55:18.360Z,5152
2017-09-23T12:56:28.317Z,5356
2017-09-23T12:57:38.274Z,5392
2017-09-23T12:58:48.227Z,5532
2017-09-23T12:59:57.861Z,5420
2017-09-23T13:01:07.820Z,4992
2017-09-23T13:02:18.100Z,4604
2017-09-23T13:03:28.381Z,4388
2017-09-23T13:04:38.339Z,4364
2017-09-23T13:05:48.625Z,4552
2017-09-23T13:06:58.580Z,4844
2017-09-23T13:08:08.536Z,5072
2017-09-23T13:09:18.828Z,4992
2017-09-23T13:10:28.793Z,4804
2017-09-23T13:11:38.743Z,4600
2017-09-23T13:12:49.029Z,4412
2017-09-23T13:13:59.306Z,4360
2017-09-23T13:15:09.269Z,4488
2017-09-23T13:16:19.228Z,4696
2017-09-23T13:17:28.539Z,4536
2017-09-23T13:18:38.493Z,4324
2017-09-23T13:19:48.125Z,4164
2017-09-23T13:20:58.404Z,4028
2017-09-23T13:22:08.364Z,3928
2017-09-23T13:23:18.652Z,3880
2017-09-23T13:24:28.281Z,3800
2017-09-23T13:25:38.247Z,3832
2017-09-23T13:26:48.202Z,4032
2017-09-23T13:27:58.481Z,4292
2017-09-23T13:29:08.433Z,4344
2017-09-23T13:30:18.391Z,4204
2017-09-23T13:31:28.670Z,4100
2017-09-23T13:32:38.954Z,4176
2017-09-23T13:33:48.913Z,4288
2017-09-23T13:34:59.190Z,4356
2017-09-23T13:36:09.150Z,4392
2017-09-23T13:37:19.427Z,4192
2017-09-23T13:38:29.383Z,3820
2017-09-23T13:39:39.595Z,3504
2017-09-23T13:40:49.877Z,3420
2017-09-23T13:42:00.156Z,3476
2017-09-23T13:43:09.787Z,3308
2017-09-23T13:44:19.742Z,3216
2017-09-23T13:45:30.023Z,3268
2017-09-23T13:46:40.318Z,3248
2017-09-23T13:47:50.268Z,3128
2017-09-23T13:49:00.547Z,2992
2017-09-23T13:50:10.836Z,2940
2017-09-23T13:51:21.121Z,3068
2017-09-23T13:52:31.396Z,3300
2017-09-23T13:53:41.669Z,3456
2017-09-23T13:54:51.953Z,3576
2017-09-23T13:56:02.229Z,3556
2017-09-23T13:57:12.509Z,3544
2017-09-23T13:58:22.475Z,3664
2017-09-23T13:59:32.434Z,3936
2017-09-23T14:00:42.717Z,4272
2017-09-23T14:01:52.674Z,4556
2017-09-23T14:03:02.957Z,4776
2017-09-23T14:04:12.913Z,4892
2017-09-23T14:05:22.884Z,5040
2017-09-23T14:06:32.836Z,5180
2017-09-23T14:07:42.803Z,5204
2017-09-23T14:08:52.756Z,5076
2017-09-23T14:10:03.036Z,4852
2017-09-23T14:11:13.316Z,4644
2017-09-23T14:12:22.635Z,4356
2017-09-23T14:13:32.265Z,3928
2017-09-23T14:14:44.416Z,3476
2017-09-23T14:15:54.367Z,3220
2017-09-23T14:17:04.323Z,3172
2017-09-23T14:18:14.280Z,3136
2017-09-23T14:19:24.568Z,3160
2017-09-23T14:20:34.207Z,3044
2017-09-23T14:21:44.485Z,3088
2017-09-23T14:22:54.437Z,3140
2017-09-23T14:24:04.397Z,3188
2017-09-23T14:25:14.355Z,3204
2017-09-23T14:26:24.629Z,3112
2017-09-23T14:27:34.908Z,2956
2017-09-23T14:28:45.185Z,2692
2017-09-23T14:29:55.462Z,2520
2017-09-23T14:31:05.100Z,2516
2017-09-23T14:32:15.380Z,2536
2017-09-23T14:33:25.338Z,2568
2017-09-23T14:34:35.295Z,2576
2017-09-23T14:35:45.253Z,2364
2017-09-23T14:36:55.203Z,2128
2017-09-23T14:38:05.155Z,2068
2017-09-23T14:39:15.108Z,2028
2017-09-23T14:40:25.063Z,1936
2017-09-23T14:41:35.345Z,1948
2017-09-23T14:42:45.622Z,2004
2017-09-23T14:43:55.902Z,2088
2017-09-23T14:45:05.534Z,2256
2017-09-23T14:46:15.485Z,2368
2017-09-23T14:47:25.804Z,2404
2017-09-23T14:48:35.436Z,2368
2017-09-23T14:49:45.745Z,2364
2017-09-23T14:50:55.704Z,2336
2017-09-23T14:52:05.664Z,2300
2017-09-23T14:53:15.939Z,2240
2017-09-23T14:54:25.895Z,2280
2017-09-23T14:55:36.180Z,2376
2017-09-23T14:56:46.140Z,2384
2017-09-23T14:57:56.413Z,2356
2017-09-23T14:59:06.696Z,2332
2017-09-23T15:00:16.980Z,2452
2017-09-23T15:01:26.937Z,2628
2017-09-23T15:02:36.572Z,2848
2017-09-23T15:03:46.537Z,2784
2017-09-23T15:04:56.497Z,2492
2017-09-23T15:06:06.776Z,2264
2017-09-23T15:07:17.062Z,2112
2017-09-23T15:08:27.336Z,2016
2017-09-23T15:09:37.619Z,1924
2017-09-23T15:10:47.578Z,1872
2017-09-23T15:11:57.859Z,1840
2017-09-23T15:13:07.496Z,1876
2017-09-23T15:14:17.775Z,2176
2017-09-23T15:15:27.788Z,2288
2017-09-23T15:16:37.426Z,2116
2017-09-23T15:17:47.386Z,2068
2017-09-23T15:18:57.663Z,2176
2017-09-23T15:20:07.299Z,2124
2017-09-23T15:21:16.941Z,1952
2017-09-23T15:22:27.226Z,1780
2017-09-23T15:23:37.514Z,1708
2017-09-23T15:24:47.473Z,1700
2017-09-23T15:25:57.428Z,1696
2017-09-23T15:27:07.384Z,1580
2017-09-23T15:28:16.697Z,1456
2017-09-23T15:29:26.969Z,1404
2017-09-23T15:30:36.936Z,1444
2017-09-23T15:31:46.894Z,1504
2017-09-23T15:32:57.180Z,1460
2017-09-23T15:34:07.132Z,1452
2017-09-23T15:35:17.415Z,1384
2017-09-23T15:36:27.702Z,1312
2017-09-23T15:37:37.658Z,1308
2017-09-23T15:38:47.617Z,1304
2017-09-23T15:39:57.575Z,1356
2017-09-23T15:41:07.856Z,1396
2017-09-23T15:42:18.129Z,1372
2017-09-23T15:43:28.092Z,1376
2017-09-23T15:44:38.044Z,1396
2017-09-23T15:45:48.324Z,1260
2017-09-23T15:46:58.278Z,1064
2017-09-23T15:48:08.240Z,960
2017-09-23T15:49:18.193Z,908
2017-09-23T15:50:28.154Z,928
2017-09-23T15:51:37.784Z,948
2017-09-23T15:52:47.739Z,924
2017-09-23T15:53:58.028Z,880
2017-09-23T15:55:07.982Z,872
2017-09-23T15:56:17.940Z,848
2017-09-23T15:57:27.898Z,784
2017-09-23T15:58:37.207Z,720
2017-09-23T15:59:47.487Z,680
2017-09-23T16:00:57.765Z,672
2017-09-23T16:02:08.041Z,696
2017-09-23T16:03:18.322Z,748
2017-09-23T16:04:28.276Z,764
2017-09-23T16:05:38.591Z,764
2017-09-23T16:06:48.549Z,760
2017-09-23T16:07:58.506Z,804